createdAt,value
2022-10-28T00:03:07.973Z,101717.59
2022-10-28T00:08:09.709Z,101709.78
2022-10-28T00:13:11.182Z,101709.25
2022-10-28T00:18:12.760Z,101704.13
2022-10-28T00:23:14.237Z,101690.19
2022-10-28T00:28:15.677Z,101683.84
2022-10-28T00:33:17.134Z,101684.69
2022-10-28T00:38:18.614Z,101677.09
2022-10-28T00:43:33.946Z,101667.00
2022-10-28T00:48:41.229Z,101664.91
2022-10-28T00:53:44.684Z,101659.75
2022-10-28T00:58:49.736Z,101655.16
2022-10-28T01:03:51.718Z,101656.91
2022-10-28T01:08:57.535Z,101658.28
2022-10-28T01:14:52.732Z,101668.97
2022-10-28T01:20:19.728Z,101675.56
2022-10-28T01:26:09.093Z,101673.34
2022-10-28T01:31:43.816Z,101672.00
2022-10-28T01:37:16.907Z,101672.69
2022-10-28T01:42:30.557Z,101675.06
2022-10-28T01:47:38.676Z,101657.91
2022-10-28T01:52:42.294Z,101656.91
2022-10-28T01:57:44.429Z,101651.94
2022-10-28T02:02:48.022Z,101645.09
2022-10-28T02:07:54.614Z,101642.50
2022-10-28T02:12:57.477Z,101630.16
2022-10-28T02:18:39.301Z,101627.75
2022-10-28T02:23:52.667Z,101624.16
2022-10-28T02:29:03.148Z,101621.56
2022-10-28T02:34:09.387Z,101611.16
2022-10-28T02:39:11.147Z,101614.75
2022-10-28T02:44:17.987Z,101611.47
2022-10-28T02:49:19.894Z,101602.06
2022-10-28T02:54:28.264Z,101603.25
2022-10-28T02:59:29.912Z,101584.88
2022-10-28T03:04:31.584Z,101586.25
2022-10-28T03:09:33.039Z,101583.72
2022-10-28T03:14:34.525Z,101592.84
2022-10-28T03:19:36.070Z,101580.97
2022-10-28T03:24:37.556Z,101575.47
2022-10-28T03:29:43.335Z,101576.16
2022-10-28T03:34:47.511Z,101572.91
2022-10-28T03:39:49.003Z,101584.94
2022-10-28T03:44:50.491Z,101577.72
2022-10-28T03:49:51.982Z,101567.78
2022-10-28T03:54:53.476Z,101578.59
2022-10-28T03:59:54.952Z,101570.53
2022-10-28T04:04:56.431Z,101570.69
2022-10-28T04:09:57.902Z,101569.50
2022-10-28T04:14:59.402Z,101565.72
2022-10-28T04:20:00.891Z,101564.50
2022-10-28T04:25:02.430Z,101548.91
2022-10-28T04:30:05.207Z,101548.91
2022-10-28T04:35:07.320Z,101548.56
2022-10-28T04:40:09.613Z,101544.09
2022-10-28T04:45:11.329Z,101547.88
2022-10-28T04:50:12.872Z,101545.47
2022-10-28T04:55:14.359Z,101542.56
2022-10-28T05:00:15.971Z,101540.34
2022-10-28T05:05:18.269Z,101533.97
2022-10-28T05:10:19.735Z,101534.66
2022-10-28T05:15:21.200Z,101543.56
2022-10-28T05:20:22.898Z,101536.03
2022-10-28T05:25:24.403Z,101533.44
2022-10-28T05:30:26.684Z,101525.38
2022-10-28T05:35:29.217Z,101529.34
2022-10-28T05:40:32.679Z,101523.16
2022-10-28T05:45:34.154Z,101522.50
2022-10-28T05:50:35.681Z,101522.84
2022-10-28T05:55:37.157Z,101525.75
2022-10-28T06:00:38.637Z,101525.25
2022-10-28T06:05:45.780Z,101532.97
2022-10-28T06:10:56.551Z,101520.47
2022-10-28T06:15:58.064Z,101538.31
2022-10-28T06:20:59.638Z,101527.47
2022-10-28T06:26:03.207Z,101531.09
2022-10-28T06:31:07.255Z,101528.00
2022-10-28T06:36:08.710Z,101544.81
2022-10-28T06:41:10.183Z,101537.41
2022-10-28T06:46:11.664Z,101544.81
2022-10-28T06:51:16.892Z,101549.78
2022-10-28T06:56:18.646Z,101551.50
2022-10-28T07:01:20.759Z,101556.81
2022-10-28T07:06:22.319Z,101548.91
2022-10-28T07:11:24.166Z,101544.78
2022-10-28T07:16:25.688Z,101545.09
2022-10-28T07:21:29.721Z,101551.28
2022-10-28T07:26:31.231Z,101554.19
2022-10-28T07:31:32.665Z,101549.50
2022-10-28T07:36:34.112Z,101549.66
2022-10-28T07:41:37.371Z,101562.81
2022-10-28T07:46:38.834Z,101573.59
2022-10-28T07:51:40.877Z,101568.75
2022-10-28T07:56:42.380Z,101579.56
2022-10-28T08:01:43.940Z,101570.53
2022-10-28T08:06:45.687Z,101571.00
2022-10-28T08:11:47.142Z,101582.78
2022-10-28T08:16:48.604Z,101583.47
2022-10-28T08:21:50.059Z,101569.22
2022-10-28T08:26:51.650Z,101580.41
2022-10-28T08:31:53.170Z,101583.81
2022-10-28T08:36:55.503Z,101585.53
2022-10-28T08:42:15.676Z,101585.53
2022-10-28T08:47:32.522Z,101593.09
2022-10-28T08:52:39.191Z,101583.81
2022-10-28T08:57:49.273Z,101597.72
2022-10-28T09:03:12.100Z,101588.69
2022-10-28T09:08:23.475Z,101589.09
2022-10-28T09:13:31.863Z,101593.03
2022-10-28T09:18:51.049Z,101586.91
2022-10-28T09:24:01.242Z,101571.50
2022-10-28T09:29:26.354Z,101573.91
2022-10-28T09:34:43.651Z,101569.06
2022-10-28T09:40:00.235Z,101577.81
2022-10-28T09:45:06.202Z,101564.31
2022-10-28T09:50:17.348Z,101571.03
2022-10-28T09:55:23.193Z,101558.41
2022-10-28T10:00:24.867Z,101560.00
2022-10-28T10:05:26.927Z,101566.06
2022-10-28T10:10:34.933Z,101576.63
2022-10-28T10:15:45.645Z,101576.69
2022-10-28T10:20:50.816Z,101561.59
2022-10-28T10:26:09.481Z,101562.38
2022-10-28T10:31:31.719Z,101561.00
2022-10-28T10:36:34.316Z,101548.50
2022-10-28T10:41:41.540Z,101524.38
2022-10-28T10:46:42.863Z,101531.22
2022-10-28T10:52:17.944Z,101537.63
2022-10-28T10:57:22.242Z,101533.44
2022-10-28T11:02:32.594Z,101526.94
2022-10-28T11:07:34.607Z,101527.38
2022-10-28T11:12:36.754Z,101529.84
2022-10-28T11:17:38.236Z,101535.72
2022-10-28T11:22:58.517Z,101532.69
2022-10-28T11:28:26.650Z,101534.44
2022-10-28T11:33:51.547Z,101517.44
2022-10-28T11:39:28.128Z,101524.50
2022-10-28T11:44:52.174Z,101527.88
2022-10-28T11:50:05.427Z,101520.06
2022-10-28T11:55:38.194Z,101536.22
2022-10-28T12:01:04.069Z,101541.13
2022-10-28T12:06:26.484Z,101547.41
2022-10-28T12:11:42.821Z,101550.03
2022-10-28T12:16:56.196Z,101534.13
2022-10-28T12:22:08.988Z,101543.06
2022-10-28T12:27:42.433Z,101538.22
2022-10-28T12:32:45.501Z,101543.75
2022-10-28T12:37:50.080Z,101548.69
2022-10-28T12:43:09.394Z,101558.44
2022-10-28T12:48:42.429Z,101569.25
2022-10-28T12:53:56.235Z,101574.56
2022-10-28T12:59:06.484Z,101562.44
2022-10-28T13:04:12.741Z,101571.41
2022-10-28T13:09:20.368Z,101570.59
2022-10-28T13:14:40.932Z,101579.53
2022-10-28T13:20:19.523Z,101587.63
2022-10-28T13:25:45.797Z,101590.84
2022-10-28T13:31:15.410Z,101600.22
2022-10-28T13:36:22.607Z,101605.16
2022-10-28T13:41:34.883Z,101596.66
2022-10-28T13:47:22.526Z,101597.03
2022-10-28T13:52:24.229Z,101604.50
2022-10-28T13:57:47.315Z,101598.97
2022-10-28T14:02:55.571Z,101605.16
2022-10-28T14:08:03.034Z,101619.59
2022-10-28T14:13:20.366Z,101621.03
2022-10-28T14:18:44.218Z,101615.13
2022-10-28T14:23:45.056Z,101624.88
2022-10-28T14:28:50.897Z,101629.94
2022-10-28T14:33:55.070Z,101631.00
2022-10-28T14:39:19.993Z,101639.06
2022-10-28T14:44:24.122Z,101646.41
2022-10-28T14:49:29.924Z,101642.84
2022-10-28T14:54:42.413Z,101649.94
2022-10-28T14:59:45.412Z,101658.59
2022-10-28T15:05:00.360Z,101663.75
2022-10-28T15:10:21.569Z,101659.66
2022-10-28T15:15:26.011Z,101671.81
2022-10-28T15:20:29.200Z,101675.31
2022-10-28T15:25:30.729Z,101679.63
2022-10-28T15:30:34.577Z,101705.19
2022-10-28T15:35:40.485Z,101704.75
2022-10-28T15:40:41.994Z,101704.41
2022-10-28T15:45:43.493Z,101720.97
2022-10-28T15:50:45.033Z,101724.03
2022-10-28T16:01:39.649Z,101744.75
2022-10-28T16:06:41.321Z,101747.25
2022-10-28T16:11:52.724Z,101760.00
2022-10-28T16:16:54.236Z,101758.59
2022-10-28T16:21:56.190Z,101756.78
2022-10-28T16:27:17.918Z,101762.47
2022-10-28T16:32:28.781Z,101767.50
2022-10-28T16:37:32.788Z,101787.94
2022-10-28T16:42:36.648Z,101787.59
2022-10-28T16:47:38.114Z,101805.97
2022-10-28T16:52:39.677Z,101805.47
2022-10-28T16:57:41.154Z,101815.56
2022-10-28T17:02:43.076Z,101816.25
2022-10-28T17:07:44.708Z,101827.44
2022-10-28T17:12:46.438Z,101842.47
2022-10-28T17:17:52.872Z,101844.56
2022-10-28T17:22:54.767Z,101858.72
2022-10-28T17:27:57.002Z,101854.97
2022-10-28T17:32:58.869Z,101874.63
2022-10-28T17:38:00.371Z,101858.66
2022-10-28T17:43:01.881Z,101875.38
2022-10-28T17:48:03.495Z,101876.28
2022-10-28T17:53:04.954Z,101875.97
2022-10-28T17:58:06.415Z,101878.22
2022-10-28T18:03:10.016Z,101883.44
2022-10-28T18:08:11.557Z,101897.41
2022-10-28T18:13:13.040Z,101902.59
2022-10-28T18:18:14.600Z,101907.78
2022-10-28T18:23:16.125Z,101898.88
2022-10-28T18:28:17.777Z,101924.38
2022-10-28T18:33:19.344Z,101919.22
2022-10-28T18:38:20.803Z,101912.69
2022-10-28T18:43:23.037Z,101914.25
2022-10-28T18:48:24.507Z,101934.06
2022-10-28T18:53:26.921Z,101930.63
2022-10-28T18:58:28.708Z,101944.94
2022-10-28T19:03:31.248Z,101948.38
2022-10-28T19:08:33.013Z,101970.06
2022-10-28T19:13:37.054Z,101959.56
2022-10-28T19:18:38.845Z,101957.53
2022-10-28T19:23:40.908Z,101963.41
2022-10-28T19:28:44.744Z,101962.69
2022-10-28T19:33:46.443Z,101978.19
2022-10-28T19:38:49.640Z,101975.78
2022-10-28T19:43:58.160Z,101984.38
2022-10-28T19:49:04.445Z,101993.31
2022-10-28T19:54:09.837Z,101999.16
2022-10-28T19:59:11.325Z,101987.81
2022-10-28T20:04:12.821Z,102002.91
2022-10-28T20:09:14.276Z,102018.72
2022-10-28T20:14:15.929Z,102009.06
2022-10-28T20:19:18.437Z,102022.59
2022-10-28T20:24:20.406Z,102030.66
2022-10-28T20:29:21.873Z,102040.78
2022-10-28T20:34:23.463Z,102028.75
2022-10-28T20:39:26.102Z,102040.06
2022-10-28T20:44:27.622Z,102040.44
2022-10-28T20:49:29.083Z,102024.75
2022-10-28T20:54:30.553Z,102024.44
2022-10-28T20:59:32.003Z,102048.81
2022-10-28T21:04:33.642Z,102055.47
2022-10-28T21:09:35.086Z,102046.56
2022-10-28T21:14:36.557Z,102057.31
2022-10-28T21:19:38.013Z,102053.03
2022-10-28T21:24:39.499Z,102055.56
2022-10-28T21:29:41.043Z,102054.19
2022-10-28T21:34:42.571Z,102055.84
2022-10-28T21:39:44.516Z,102070.56
2022-10-28T21:44:45.990Z,102074.13
2022-10-28T21:49:47.502Z,102069.97
2022-10-28T21:54:48.956Z,102072.72
2022-10-28T21:59:50.428Z,102076.63
2022-10-28T22:04:51.886Z,102068.03
2022-10-28T22:09:53.372Z,102071.81
2022-10-28T22:14:54.856Z,102076.59
2022-10-28T22:19:56.705Z,102073.63
2022-10-28T22:24:58.183Z,102076.84
2022-10-28T22:29:59.654Z,102087.81
2022-10-28T22:35:01.106Z,102079.97
2022-10-28T22:40:02.572Z,102091.50
2022-10-28T22:45:04.300Z,102093.31
2022-10-28T22:50:05.926Z,102096.00
2022-10-28T22:55:07.591Z,102106.25
2022-10-28T23:00:10.281Z,102098.81
2022-10-28T23:05:11.794Z,102096.94
2022-10-28T23:10:13.435Z,102093.88
2022-10-28T23:15:15.002Z,102085.34
2022-10-28T23:20:21.097Z,102102.34
2022-10-28T23:25:22.714Z,102098.59
2022-10-28T23:30:24.228Z,102098.28
2022-10-28T23:35:25.839Z,102097.25
2022-10-28T23:40:27.304Z,102097.09
2022-10-28T23:45:28.798Z,102105.22
2022-10-28T23:50:30.301Z,102113.84
2022-10-28T23:55:31.856Z,102112.13
